createdAt,value
2023-06-19T00:00:16.408Z,72.05
2023-06-19T00:01:16.569Z,71.79
2023-06-19T00:02:17.241Z,71.7
2023-06-19T00:03:17.321Z,71.18
2023-06-19T00:04:17.929Z,71.12
2023-06-19T00:05:18.401Z,71.22
2023-06-19T00:06:19.319Z,71.22
2023-06-19T00:07:19.848Z,71.12
2023-06-19T00:08:20.557Z,71.31
2023-06-19T00:09:21.287Z,71.28
2023-06-19T00:10:22.205Z,71.41
2023-06-19T00:11:23.070Z,71.6
2023-06-19T00:12:24.023Z,71.5
2023-06-19T00:13:24.130Z,71.7
2023-06-19T00:14:24.655Z,71.89
2023-06-19T00:15:25.372Z,71.7
2023-06-19T00:16:25.999Z,71.31
2023-06-19T00:17:26.105Z,71.89
2023-06-19T00:18:27.115Z,71.7
2023-06-19T00:19:27.464Z,71.85
2023-06-19T00:20:28.312Z,71.6
2023-06-19T00:21:28.975Z,71.76
2023-06-19T00:22:29.681Z,71.56
2023-06-19T00:23:30.310Z,71.85
2023-06-19T00:24:31.334Z,72.27
2023-06-19T00:25:32.163Z,72.66
2023-06-19T00:26:32.484Z,71.85
2023-06-19T00:27:33.429Z,72.08
2023-06-19T00:28:33.743Z,71.79
2023-06-19T00:29:34.287Z,72.53
2023-06-19T00:30:35.212Z,72.56
2023-06-19T00:31:35.870Z,72.81
2023-06-19T00:32:36.621Z,71.79
2023-06-19T00:33:37.146Z,71.66
2023-06-19T00:34:37.882Z,71.76
2023-06-19T00:35:38.420Z,72.05
2023-06-19T00:36:39.318Z,71.79
2023-06-19T00:37:40.018Z,71.95
2023-06-19T00:38:41.169Z,71.76
2023-06-19T00:39:44.648Z,72.14
2023-06-19T00:40:42.396Z,72.53
2023-06-19T00:41:43.245Z,71.85
2023-06-19T00:42:44.150Z,72.37
2023-06-19T00:43:44.953Z,72.47
2023-06-19T00:44:45.683Z,72.24
2023-06-19T00:45:45.648Z,72.18
2023-06-19T00:46:46.567Z,71.89
2023-06-19T00:47:47.341Z,71.66
2023-06-19T00:48:48.296Z,71.47
2023-06-19T00:49:48.802Z,71.89
2023-06-19T00:50:49.495Z,71.79
2023-06-19T00:51:50.008Z,72.08
2023-06-19T00:52:50.519Z,72.18
2023-06-19T00:53:51.266Z,71.89
2023-06-19T00:54:51.960Z,71.89
2023-06-19T00:55:52.896Z,72.37
2023-06-19T00:56:53.637Z,72.95
2023-06-19T00:57:54.562Z,72.66
2023-06-19T00:58:55.328Z,72.81
2023-06-19T00:59:55.863Z,73.2
2023-06-19T01:01:12.842Z,72.91
2023-06-19T01:03:00.913Z,72.43
2023-06-19T01:04:01.984Z,73.2
2023-06-19T01:05:01.405Z,73.1
2023-06-19T01:06:02.018Z,73.3
2023-06-19T01:07:02.535Z,73.49
2023-06-19T01:08:03.236Z,72.81
2023-06-19T01:09:03.980Z,73.39
2023-06-19T01:10:04.491Z,74.26
2023-06-19T01:11:11.939Z,73.2
2023-06-19T01:13:14.725Z,72.33
2023-06-19T01:14:15.429Z,72.72
2023-06-19T01:15:15.938Z,72.53
2023-06-19T01:16:16.709Z,72.72
2023-06-19T01:17:17.805Z,72.24
2023-06-19T01:18:18.327Z,72.43
2023-06-19T01:19:18.863Z,72.24
2023-06-19T01:20:19.577Z,73.1
2023-06-19T01:21:19.936Z,72.33
2023-06-19T01:22:20.406Z,72.91
2023-06-19T01:23:21.323Z,72.72
2023-06-19T01:24:21.862Z,72.81
2023-06-19T01:25:22.423Z,73.1
2023-06-19T01:26:23.766Z,73.39
2023-06-19T01:27:24.514Z,72.81
2023-06-19T01:28:25.138Z,72.91
2023-06-19T01:29:25.870Z,73.49
2023-06-19T01:30:27.210Z,73.58
2023-06-19T01:31:26.899Z,73.78
2023-06-19T01:32:28.096Z,73.3
2023-06-19T01:33:29.007Z,74.26
2023-06-19T01:34:28.995Z,74.16
2023-06-19T01:35:30.179Z,73.97
2023-06-19T01:36:31.151Z,73.2
2023-06-19T01:37:31.924Z,73.3
2023-06-19T01:38:32.162Z,73.49
2023-06-19T01:39:32.885Z,73.3
2023-06-19T01:40:33.382Z,73.49
2023-06-19T01:41:34.141Z,73.3
2023-06-19T01:42:34.627Z,73.49
2023-06-19T01:43:35.398Z,73.3
2023-06-19T01:44:36.337Z,73.58
2023-06-19T01:45:36.945Z,73.78
2023-06-19T01:46:37.521Z,73.2
2023-06-19T01:47:37.822Z,73.49
2023-06-19T01:48:37.841Z,73.3
2023-06-19T01:49:38.915Z,73.39
2023-06-19T01:50:39.641Z,73.2
2023-06-19T01:51:40.562Z,74.07
2023-06-19T01:52:40.814Z,73.88
2023-06-19T01:53:41.170Z,73.88
2023-06-19T01:54:41.460Z,73.88
2023-06-19T01:55:41.753Z,74.16
2023-06-19T01:56:42.501Z,73.58
2023-06-19T01:57:43.236Z,74.07
2023-06-19T01:58:43.962Z,74.16
2023-06-19T01:59:44.064Z,74.93
2023-06-19T02:00:44.800Z,74.65
2023-06-19T02:01:45.709Z,74.16
2023-06-19T02:02:46.471Z,74.16
2023-06-19T02:03:47.226Z,74.36
2023-06-19T02:04:46.863Z,74.07
2023-06-19T02:05:47.358Z,73.78
2023-06-19T02:06:48.246Z,73.88
2023-06-19T02:07:48.943Z,73.68
2023-06-19T02:08:49.669Z,73.2
2023-06-19T02:09:50.444Z,73.68
2023-06-19T02:10:51.734Z,74.36
2023-06-19T02:11:52.244Z,73.1
2023-06-19T02:12:52.831Z,74.07
2023-06-19T02:13:53.534Z,73.88
2023-06-19T02:14:54.279Z,73.68
2023-06-19T02:15:55.014Z,72.91
2023-06-19T02:16:55.619Z,73.39
2023-06-19T02:17:56.338Z,73.39
2023-06-19T02:18:56.832Z,73.49
2023-06-19T02:19:57.595Z,73.58
2023-06-19T02:20:58.304Z,73.07
2023-06-19T02:21:58.632Z,73.07
2023-06-19T02:22:59.496Z,73.26
2023-06-19T02:24:00.337Z,73.2
2023-06-19T02:25:00.886Z,72.81
2023-06-19T02:26:01.216Z,72.78
2023-06-19T02:27:02.037Z,72.72
2023-06-19T02:28:02.581Z,72.63
2023-06-19T02:29:03.321Z,72.91
2023-06-19T02:30:04.096Z,73.01
2023-06-19T02:31:04.901Z,73.46
2023-06-19T02:32:05.391Z,73.2
2023-06-19T02:33:06.598Z,73.16
2023-06-19T02:34:06.951Z,73.3
2023-06-19T02:35:07.884Z,73.3
2023-06-19T02:36:08.397Z,73.39
2023-06-19T02:37:09.122Z,73.49
2023-06-19T02:38:10.065Z,72.91
2023-06-19T02:39:10.967Z,73.07
2023-06-19T02:40:11.720Z,73.07
2023-06-19T02:41:12.620Z,73.07
2023-06-19T02:42:13.603Z,73.55
2023-06-19T02:43:14.487Z,73.84
2023-06-19T02:44:14.637Z,73.2
2023-06-19T02:45:14.576Z,73.74
2023-06-19T02:46:18.528Z,74.26
2023-06-19T02:47:15.676Z,74.13
2023-06-19T02:48:16.305Z,74.22
2023-06-19T02:49:16.808Z,74.13
2023-06-19T02:50:17.561Z,74.45
2023-06-19T02:51:18.593Z,74.41
2023-06-19T02:52:19.320Z,74.13
2023-06-19T02:53:19.359Z,74.51
2023-06-19T02:54:19.871Z,74.51
2023-06-19T02:55:20.819Z,74.03
2023-06-19T02:56:21.739Z,74.03
2023-06-19T02:57:22.758Z,74.16
2023-06-19T02:58:22.703Z,74.32
2023-06-19T02:59:23.423Z,74.51
2023-06-19T03:00:24.497Z,74.13
2023-06-19T03:01:24.428Z,74.41
2023-06-19T03:02:25.492Z,74.13
2023-06-19T03:03:25.982Z,74.03
2023-06-19T03:04:28.318Z,74.03
2023-06-19T03:05:26.543Z,74.13
2023-06-19T03:06:27.119Z,74.13
2023-06-19T03:07:28.033Z,74.32
2023-06-19T03:08:28.543Z,74.41
2023-06-19T03:09:29.670Z,74.13
2023-06-19T03:10:30.730Z,74.13
2023-06-19T03:11:30.448Z,74.03
2023-06-19T03:12:31.547Z,73.74
2023-06-19T03:13:32.360Z,73.94
2023-06-19T03:14:33.299Z,74.22
2023-06-19T03:15:33.616Z,74.41
2023-06-19T03:16:33.885Z,74.13
2023-06-19T03:17:34.569Z,74.22
2023-06-19T03:18:34.693Z,74.22
2023-06-19T03:19:35.285Z,74.16
2023-06-19T03:20:36.291Z,74.03
2023-06-19T03:21:36.799Z,73.94
2023-06-19T03:22:37.353Z,74.03
2023-06-19T03:23:38.190Z,74.22
2023-06-19T03:24:38.502Z,73.94
2023-06-19T03:25:38.893Z,74.16
2023-06-19T03:26:39.876Z,73.84
2023-06-19T03:27:40.875Z,74.13
2023-06-19T03:28:41.029Z,74.22
2023-06-19T03:29:42.158Z,74.13
2023-06-19T03:30:42.086Z,74.22
2023-06-19T03:31:42.809Z,73.55
2023-06-19T03:32:43.592Z,73.68
2023-06-19T03:33:44.299Z,74.13
2023-06-19T03:34:45.063Z,74.22
2023-06-19T03:35:45.609Z,74.03
2023-06-19T03:36:46.364Z,74.16
2023-06-19T03:37:46.871Z,73.84
2023-06-19T03:38:47.789Z,73.74
2023-06-19T03:39:48.068Z,73.58
2023-06-19T03:40:48.981Z,74.32
2023-06-19T03:41:49.501Z,74.16
2023-06-19T03:42:50.472Z,74.13
2023-06-19T03:43:50.967Z,74.13
2023-06-19T03:44:51.527Z,74.13
2023-06-19T03:45:52.484Z,74.26
2023-06-19T03:46:53.533Z,74.03
2023-06-19T03:47:54.404Z,74.22
2023-06-19T03:48:55.221Z,73.84
2023-06-19T03:49:56.052Z,74.41
2023-06-19T03:50:56.153Z,74.03
2023-06-19T03:51:56.863Z,74.32
2023-06-19T03:52:57.582Z,74.41
2023-06-19T03:53:58.235Z,74.84
2023-06-19T03:54:58.961Z,74.93
2023-06-19T03:56:01.849Z,74.61
2023-06-19T03:56:59.554Z,74.99
2023-06-19T03:58:00.157Z,75.57
2023-06-19T03:59:00.526Z,76.73
2023-06-19T04:00:01.490Z,77.31
2023-06-19T04:01:02.244Z,77.21
2023-06-19T04:02:02.944Z,77.73
2023-06-19T04:03:04.078Z,77.69
2023-06-19T04:04:04.332Z,77.59
2023-06-19T04:05:04.579Z,78.08
2023-06-19T04:06:05.378Z,77.5
2023-06-19T04:07:06.090Z,75.86
2023-06-19T04:08:06.986Z,75.48
2023-06-19T04:09:07.892Z,74.8
2023-06-19T04:10:08.694Z,74.41
2023-06-19T04:11:09.757Z,73.84
2023-06-19T04:12:10.284Z,74.13
2023-06-19T04:13:11.063Z,74.32
2023-06-19T04:15:11.637Z,74.26
2023-06-19T04:16:12.313Z,74.16
2023-06-19T04:17:12.279Z,73.97
2023-06-19T04:18:12.582Z,73.68
2023-06-19T04:19:13.469Z,73.3
2023-06-19T04:20:14.130Z,73.1
2023-06-19T04:21:15.095Z,72.91
2023-06-19T04:22:15.599Z,73.58
2023-06-19T04:23:16.126Z,73.2
2023-06-19T04:24:16.988Z,73.58
2023-06-19T04:25:17.444Z,73.49
2023-06-19T04:26:18.380Z,74.36
2023-06-19T04:27:19.133Z,74.36
2023-06-19T04:28:19.871Z,73.68
2023-06-19T04:29:20.639Z,73.78
2023-06-19T04:30:21.648Z,74.26
2023-06-19T04:31:22.031Z,74.74
2023-06-19T04:32:22.324Z,74.07
2023-06-19T04:33:23.437Z,74.26
2023-06-19T04:34:23.752Z,74.84
2023-06-19T04:35:24.244Z,74.74
2023-06-19T04:36:24.299Z,74.74
2023-06-19T04:37:24.396Z,74.65
2023-06-19T04:38:25.292Z,75.42
2023-06-19T04:39:25.789Z,75.32
2023-06-19T04:40:26.717Z,75.38
2023-06-19T04:41:26.924Z,75.8
2023-06-19T04:42:27.265Z,74.84
2023-06-19T04:43:27.782Z,74.84
2023-06-19T04:44:28.467Z,75.32
2023-06-19T04:45:29.189Z,75.42
2023-06-19T04:46:29.818Z,75.51
2023-06-19T04:47:48.477Z,75.61
2023-06-19T04:48:31.816Z,75.61
2023-06-19T04:49:32.635Z,75.99
2023-06-19T04:50:33.367Z,75.9
2023-06-19T04:51:33.963Z,75.32
2023-06-19T04:52:35.271Z,75.71
2023-06-19T04:53:36.147Z,76.57
2023-06-19T04:54:36.238Z,75.99
2023-06-19T04:55:36.788Z,75.42
2023-06-19T04:56:37.333Z,75.32
2023-06-19T04:57:38.066Z,74.84
2023-06-19T04:58:38.514Z,74.65
2023-06-19T04:59:38.861Z,74.93
2023-06-19T05:00:39.786Z,75.32
2023-06-19T05:01:40.355Z,75.61
2023-06-19T05:02:41.041Z,75.8
2023-06-19T05:03:41.147Z,75.71
2023-06-19T05:04:42.124Z,75.9
2023-06-19T05:05:42.866Z,76.67
2023-06-19T05:06:43.847Z,78.11
2023-06-19T05:07:44.580Z,77.15
2023-06-19T05:08:45.363Z,77.63
2023-06-19T05:09:46.291Z,78.88
2023-06-19T05:10:49.592Z,78.88
2023-06-19T05:11:47.099Z,78.21
2023-06-19T05:12:47.545Z,78.02
2023-06-19T05:13:48.701Z,78.31
2023-06-19T05:14:48.828Z,77.76
2023-06-19T05:15:49.934Z,76.32
2023-06-19T05:16:50.460Z,76.71
2023-06-19T05:17:50.587Z,76.9
2023-06-19T05:18:51.323Z,77.38
2023-06-19T05:19:51.837Z,77.67
2023-06-19T05:20:52.552Z,78.34
2023-06-19T05:21:53.556Z,78.34
2023-06-19T05:22:54.498Z,77.67
2023-06-19T05:23:54.651Z,77.76
2023-06-19T05:24:55.620Z,77.38
2023-06-19T05:25:56.143Z,77
2023-06-19T05:26:57.041Z,77
2023-06-19T05:27:57.810Z,78.25
2023-06-19T05:28:58.243Z,78.73
2023-06-19T05:29:58.811Z,79.11
2023-06-19T05:30:59.541Z,79.02
2023-06-19T05:32:00.277Z,79.02
2023-06-19T05:33:00.956Z,78.54
2023-06-19T05:34:00.862Z,78.63
2023-06-19T05:35:01.172Z,78.34
2023-06-19T05:36:02.055Z,78.19
2023-06-19T05:37:03.230Z,77.23
2023-06-19T05:38:03.745Z,76.93
2023-06-19T05:39:04.483Z,76.65
2023-06-19T05:40:04.666Z,76.36
2023-06-19T05:41:05.303Z,76.75
2023-06-19T05:42:05.838Z,76.55
2023-06-19T05:43:06.743Z,76.17
2023-06-19T05:44:06.991Z,75.97
2023-06-19T05:45:07.877Z,75.4
2023-06-19T05:46:09.114Z,75.62
2023-06-19T05:47:09.158Z,75.53
2023-06-19T05:48:09.615Z,75.24
2023-06-19T05:49:10.514Z,74.95
2023-06-19T05:50:11.126Z,74.85
2023-06-19T05:51:12.109Z,75.67
2023-06-19T05:52:12.933Z,75.09
2023-06-19T05:53:15.696Z,74.99
2023-06-19T05:54:14.088Z,74.99
2023-06-19T05:55:14.873Z,75.37
2023-06-19T05:56:15.732Z,75.47
2023-06-19T05:57:15.648Z,75.09
2023-06-19T05:58:15.952Z,74.79
2023-06-19T05:59:16.913Z,75.12
2023-06-19T06:00:17.758Z,74.93
2023-06-19T06:01:18.275Z,74.93
2023-06-19T06:02:19.060Z,75.12
2023-06-19T06:03:19.789Z,74.83
2023-06-19T06:04:20.710Z,74.54
2023-06-19T06:05:21.305Z,74.93
2023-06-19T06:06:22.072Z,75.6
2023-06-19T06:07:22.674Z,75.6
2023-06-19T06:08:23.040Z,75.7
2023-06-19T06:09:23.876Z,75.6
2023-06-19T06:10:24.735Z,76.18
2023-06-19T06:11:24.756Z,76.12
2023-06-19T06:12:24.691Z,75.64
2023-06-19T06:13:25.883Z,75.74
2023-06-19T06:14:26.842Z,75.93
2023-06-19T06:15:27.259Z,76.22
2023-06-19T06:16:28.059Z,76.22
2023-06-19T06:17:29.146Z,76.22
2023-06-19T06:18:29.236Z,76.32
2023-06-19T06:19:30.968Z,75.74
2023-06-19T06:20:30.769Z,75.26
2023-06-19T06:21:31.484Z,75.16
2023-06-19T06:22:32.191Z,75.74
2023-06-19T06:23:32.920Z,74.96
2023-06-19T06:24:33.618Z,75.84
2023-06-19T06:25:34.271Z,76.22
2023-06-19T06:26:34.996Z,75.74
2023-06-19T06:27:35.488Z,75.54
2023-06-19T06:28:36.442Z,76.12
2023-06-19T06:29:37.212Z,75.54
2023-06-19T06:30:37.977Z,75.74
2023-06-19T06:31:38.808Z,75.45
2023-06-19T06:32:39.798Z,75.45
2023-06-19T06:33:39.974Z,75.74
2023-06-19T06:34:40.925Z,75.93
2023-06-19T06:35:41.565Z,76.32
2023-06-19T06:36:57.008Z,76.22
2023-06-19T06:37:42.293Z,76.7
2023-06-19T06:38:42.916Z,76.51
2023-06-19T06:39:43.484Z,76.22
2023-06-19T06:40:44.060Z,76.22
2023-06-19T06:41:45.014Z,76.9
2023-06-19T06:42:46.007Z,76.22
2023-06-19T06:43:46.968Z,75.54
2023-06-19T06:44:47.970Z,75.26
2023-06-19T06:45:48.356Z,75.93
2023-06-19T06:46:48.454Z,76.03
2023-06-19T06:47:49.479Z,76.26
2023-06-19T06:48:50.399Z,76.55
2023-06-19T06:49:51.322Z,76.45
2023-06-19T06:50:51.710Z,75.87
2023-06-19T06:51:52.868Z,75.78
2023-06-19T06:52:53.517Z,76.06
2023-06-19T06:53:53.686Z,75.87
2023-06-19T06:54:53.621Z,76.06
2023-06-19T06:55:54.668Z,75.58
2023-06-19T06:56:55.185Z,75.58
2023-06-19T06:57:55.702Z,75
2023-06-19T06:58:56.625Z,75.78
2023-06-19T06:59:57.568Z,75
2023-06-19T07:00:58.477Z,75
2023-06-19T07:01:58.914Z,75.1
2023-06-19T07:02:59.448Z,75
2023-06-19T07:04:01.016Z,75
2023-06-19T07:04:59.935Z,75.58
2023-06-19T07:05:59.830Z,75
2023-06-19T07:07:00.976Z,74.52
2023-06-19T07:08:01.678Z,75.1
2023-06-19T07:09:02.501Z,75
2023-06-19T07:10:03.230Z,75
2023-06-19T07:11:03.797Z,75.68
2023-06-19T07:12:04.310Z,75
2023-06-19T07:13:05.527Z,75
2023-06-19T07:14:05.660Z,75.87
2023-06-19T07:15:06.623Z,75.97
2023-06-19T07:16:06.775Z,76.45
2023-06-19T07:17:07.888Z,75.78
2023-06-19T07:18:08.410Z,76.16
2023-06-19T07:19:08.665Z,75.2
2023-06-19T07:20:09.413Z,74.9
2023-06-19T07:21:09.982Z,74.81
2023-06-19T07:22:09.921Z,75.23
2023-06-19T07:23:10.798Z,75.33
2023-06-19T07:24:11.747Z,75
2023-06-19T07:25:12.116Z,75.1
2023-06-19T07:26:12.240Z,74.85
2023-06-19T07:27:13.324Z,74.85
2023-06-19T07:28:14.355Z,74.46
2023-06-19T07:29:15.179Z,74.59
2023-06-19T07:30:17.093Z,75.07
2023-06-19T07:31:16.448Z,75.56
2023-06-19T07:32:17.175Z,75.95
2023-06-19T07:33:17.367Z,75.75
2023-06-19T07:34:18.091Z,75.07
2023-06-19T07:35:18.922Z,74.88
2023-06-19T07:36:19.840Z,75.11
2023-06-19T07:37:20.762Z,74.63
2023-06-19T07:38:21.101Z,74.82
2023-06-19T07:39:21.517Z,74.08
2023-06-19T07:40:22.248Z,74.08
2023-06-19T07:41:22.979Z,73.5
2023-06-19T07:42:23.968Z,72.15
2023-06-19T07:43:24.763Z,72.44
2023-06-19T07:44:25.282Z,72.44
2023-06-19T07:45:26.137Z,73.11
2023-06-19T07:46:26.976Z,72.77
2023-06-19T07:47:27.366Z,72.18
2023-06-19T07:48:28.256Z,71.41
2023-06-19T07:49:28.169Z,71.31
2023-06-19T07:50:32.737Z,71.93
2023-06-19T07:51:30.016Z,70.47
2023-06-19T07:52:30.376Z,70.76
2023-06-19T07:53:31.333Z,70.61
2023-06-19T07:54:32.466Z,69.73
2023-06-19T07:55:33.437Z,68.31
2023-06-19T07:56:34.115Z,68.54
2023-06-19T07:57:35.248Z,67.08
2023-06-19T07:58:35.994Z,66.14
2023-06-19T07:59:36.352Z,65.01
2023-06-19T08:00:36.920Z,64.2
2023-06-19T08:01:37.971Z,62.96
2023-06-19T08:02:38.906Z,61.83
2023-06-19T08:03:39.744Z,61.93
2023-06-19T08:04:40.412Z,61.73
2023-06-19T08:05:40.442Z,62.02
2023-06-19T08:06:40.717Z,62.57
2023-06-19T08:07:41.876Z,62.93
2023-06-19T08:08:41.982Z,62.54
2023-06-19T08:09:42.809Z,62.84
2023-06-19T08:10:43.563Z,62.74
2023-06-19T08:11:43.916Z,62.64
2023-06-19T08:12:44.899Z,63.03
2023-06-19T08:13:44.823Z,63.52
2023-06-19T08:14:45.801Z,63.42
2023-06-19T08:15:46.552Z,63.32
2023-06-19T08:16:47.273Z,62.93
2023-06-19T08:17:48.222Z,62.64
2023-06-19T08:18:49.001Z,62.45
2023-06-19T08:19:50.067Z,62.77
2023-06-19T08:20:50.832Z,62.87
2023-06-19T08:21:51.826Z,62.96
2023-06-19T08:22:52.405Z,61.83
2023-06-19T08:23:52.824Z,61.83
2023-06-19T08:24:53.023Z,60.95
2023-06-19T08:25:53.372Z,60.75
2023-06-19T08:26:53.633Z,61.18
2023-06-19T08:27:54.403Z,60.49
2023-06-19T08:28:54.973Z,59.84
2023-06-19T08:29:55.962Z,59.45
2023-06-19T08:30:57.153Z,59.16
2023-06-19T08:31:57.273Z,58.97
2023-06-19T08:32:57.358Z,59.09
2023-06-19T08:34:00.227Z,59.67
2023-06-19T08:34:58.168Z,58.99
2023-06-19T08:35:59.057Z,58.53
2023-06-19T08:36:59.532Z,57.65
2023-06-19T08:38:00.481Z,57.68
2023-06-19T08:39:01.208Z,57.32
2023-06-19T08:40:02.364Z,55.86
2023-06-19T08:41:02.777Z,55.88
2023-06-19T08:42:03.546Z,55.81
2023-06-19T08:43:03.583Z,55.26
2023-06-19T08:44:04.352Z,54.69
2023-06-19T08:45:04.883Z,53.81
2023-06-19T08:46:05.107Z,52.86
2023-06-19T08:47:05.532Z,52.67
2023-06-19T08:48:05.916Z,52.56
2023-06-19T08:49:06.080Z,52.5
2023-06-19T08:50:08.469Z,52.76
2023-06-19T08:51:07.347Z,52.86
2023-06-19T08:52:08.165Z,53.91
2023-06-19T08:53:09.101Z,54.11
2023-06-19T08:54:09.872Z,53.81
2023-06-19T08:55:10.110Z,52.73
2023-06-19T08:56:10.575Z,52.08
2023-06-19T08:57:10.988Z,52.67
2023-06-19T08:58:11.457Z,52.4
2023-06-19T08:59:12.259Z,52
2023-06-19T09:00:13.251Z,52.4
2023-06-19T09:01:14.026Z,52.98
2023-06-19T09:02:14.933Z,52
2023-06-19T09:03:19.518Z,52.72
2023-06-19T09:04:16.240Z,52.4
2023-06-19T09:05:16.245Z,52.2
2023-06-19T09:06:16.575Z,52.4
2023-06-19T09:07:17.459Z,53.06
2023-06-19T09:08:17.812Z,53.64
2023-06-19T09:09:17.990Z,53.64
2023-06-19T09:10:19.088Z,52.17
2023-06-19T09:11:19.330Z,52.37
2023-06-19T09:12:19.451Z,51.68
2023-06-19T09:13:20.450Z,52.2
2023-06-19T09:14:20.596Z,51.32
2023-06-19T09:15:20.751Z,52
2023-06-19T09:16:21.646Z,51.15
2023-06-19T09:17:22.660Z,51.93
2023-06-19T09:18:23.054Z,51.07
2023-06-19T09:19:23.176Z,49.9
2023-06-19T09:20:24.188Z,50.59
2023-06-19T09:21:23.938Z,51.76
2023-06-19T09:22:24.776Z,50.39
2023-06-19T09:23:25.099Z,49.31
2023-06-19T09:24:26.317Z,48.16
2023-06-19T09:25:27.090Z,47
2023-06-19T09:26:27.897Z,48.57
2023-06-19T09:27:28.363Z,49.46
2023-06-19T09:28:29.406Z,49.63
2023-06-19T09:29:30.175Z,49.33
2023-06-19T09:30:31.276Z,49.33
2023-06-19T09:31:31.418Z,49.85
2023-06-19T09:32:32.595Z,49.36
2023-06-19T09:33:32.770Z,48.94
2023-06-19T09:34:32.801Z,49.04
2023-06-19T09:35:33.737Z,49.31
2023-06-19T09:36:34.458Z,50.2
2023-06-19T09:37:35.317Z,50.37
2023-06-19T09:38:35.870Z,51.42
2023-06-19T09:39:36.143Z,50.83
2023-06-19T09:40:36.485Z,52.1
2023-06-19T09:41:36.683Z,51.05
2023-06-19T09:42:37.278Z,49.87
2023-06-19T09:43:37.402Z,50.54
2023-06-19T09:44:46.744Z,51.03
2023-06-19T09:45:38.932Z,51.12
2023-06-19T09:46:40.351Z,52.27
2023-06-19T09:47:40.591Z,52.42
2023-06-19T09:48:41.560Z,53.59
2023-06-19T09:49:42.419Z,53.37
2023-06-19T09:50:43.379Z,52.88
2023-06-19T09:51:44.348Z,53.56
2023-06-19T09:52:45.290Z,54.03
2023-06-19T09:53:46.251Z,54.22
2023-06-19T09:54:47.098Z,54.1
2023-06-19T09:55:48.360Z,54.79
2023-06-19T09:56:48.552Z,54.81
2023-06-19T09:57:49.448Z,54.61
2023-06-19T09:58:50.372Z,54.98
2023-06-19T09:59:51.277Z,55.08
2023-06-19T10:00:51.748Z,54.81
2023-06-19T10:01:52.854Z,54.98
2023-06-19T10:02:54.026Z,55.96
2023-06-19T10:03:54.792Z,54.79
2023-06-19T10:04:55.769Z,54.79
2023-06-19T10:05:56.114Z,55.96
2023-06-19T10:06:56.530Z,54.98
2023-06-19T10:07:57.406Z,55.86
2023-06-19T10:08:57.390Z,55.47
2023-06-19T10:09:58.720Z,55.57
2023-06-19T10:10:58.592Z,54.98
2023-06-19T10:11:59.718Z,54.49
2023-06-19T10:13:00.697Z,54.79
2023-06-19T10:14:01.460Z,55.05
2023-06-19T10:15:02.256Z,54.66
2023-06-19T10:16:03.224Z,54.95
2023-06-19T10:17:04.369Z,54.56
2023-06-19T10:18:04.814Z,54.66
2023-06-19T10:19:05.077Z,54.75
2023-06-19T10:20:05.678Z,54.85
2023-06-19T10:21:06.775Z,55.15
2023-06-19T10:22:07.230Z,55.34
2023-06-19T10:23:09.054Z,54.69
2023-06-19T10:24:07.840Z,54.88
2023-06-19T10:25:08.110Z,54.88
2023-06-19T10:26:09.625Z,55.15
2023-06-19T10:27:09.339Z,55.15
2023-06-19T10:28:09.738Z,55.54
2023-06-19T10:29:10.508Z,55.83
2023-06-19T10:30:21.992Z,55.44
2023-06-19T10:31:11.876Z,55.34
2023-06-19T10:32:12.614Z,54.27
2023-06-19T10:33:13.598Z,53.49
2023-06-19T10:34:14.589Z,53.75
2023-06-19T10:35:15.541Z,55.8
2023-06-19T10:36:18.956Z,55.63
2023-06-19T10:37:16.932Z,55.96
2023-06-19T10:38:17.648Z,55.86
2023-06-19T10:39:18.501Z,54.03
2023-06-19T10:40:19.782Z,52.76
2023-06-19T10:41:20.150Z,52.95
2023-06-19T10:42:20.398Z,52.2
2023-06-19T10:43:20.913Z,52.37
2023-06-19T10:44:21.810Z,54.03
2023-06-19T10:45:21.761Z,53.93
2023-06-19T10:46:22.334Z,54.81
2023-06-19T10:47:23.241Z,55.91
2023-06-19T10:48:23.790Z,53.66
2023-06-19T10:49:24.876Z,52.12
2023-06-19T10:50:25.671Z,52.49
2023-06-19T10:51:26.653Z,52.39
2023-06-19T10:52:27.489Z,53.25
2023-06-19T10:53:28.086Z,51.98
2023-06-19T10:54:28.169Z,51.88
2023-06-19T10:55:28.731Z,52.76
2023-06-19T10:56:29.799Z,52.08
2023-06-19T10:57:30.744Z,51.88
2023-06-19T10:58:31.916Z,52.15
2023-06-19T10:59:32.465Z,53.42
2023-06-19T11:00:33.413Z,55.44
2023-06-19T11:01:34.404Z,55.27
2023-06-19T11:02:34.739Z,52.73
2023-06-19T11:03:35.591Z,52.93
2023-06-19T11:04:35.645Z,53.52
2023-06-19T11:05:36.581Z,54.3
2023-06-19T11:06:37.538Z,53.71
2023-06-19T11:07:37.897Z,51.95
2023-06-19T11:08:38.785Z,52.05
2023-06-19T11:09:40.251Z,53.49
2023-06-19T11:10:39.789Z,55.54
2023-06-19T11:11:40.757Z,55.63
2023-06-19T11:12:41.844Z,55.08
2023-06-19T11:13:42.819Z,55.08
2023-06-19T11:14:43.185Z,54.69
2023-06-19T11:15:43.731Z,54.79
2023-06-19T11:16:43.865Z,54.1
2023-06-19T11:17:45.150Z,54.39
2023-06-19T11:18:45.355Z,56.15
2023-06-19T11:19:45.472Z,56.25
2023-06-19T11:20:46.210Z,55.66
2023-06-19T11:21:46.834Z,54.39
2023-06-19T11:22:47.400Z,54.3
2023-06-19T11:23:48.304Z,53.71
2023-06-19T11:24:49.369Z,53.52
2023-06-19T11:25:49.572Z,53.61
2023-06-19T11:26:49.787Z,53.22
2023-06-19T11:27:50.534Z,54.98
2023-06-19T11:28:50.962Z,56.25
2023-06-19T11:29:51.539Z,56.15
2023-06-19T11:30:52.330Z,55.4
2023-06-19T11:31:52.607Z,54.52
2023-06-19T11:32:53.757Z,54.13
2023-06-19T11:33:53.784Z,54.35
2023-06-19T11:34:53.874Z,55.65
2023-06-19T11:35:54.845Z,55.16
2023-06-19T11:36:55.472Z,53.2
2023-06-19T11:37:56.470Z,52.93
2023-06-19T11:38:57.343Z,53.03
2023-06-19T11:39:58.298Z,52.76
2023-06-19T11:40:58.522Z,51.61
2023-06-19T11:42:00.647Z,50.93
2023-06-19T11:42:59.775Z,50.24
2023-06-19T11:44:00.646Z,50.66
2023-06-19T11:45:01.633Z,50.66
2023-06-19T11:46:01.768Z,49.87
2023-06-19T11:47:02.161Z,50.34
2023-06-19T11:48:03.096Z,50.93
2023-06-19T11:49:12.661Z,50.73
2023-06-19T11:50:03.946Z,50.71
2023-06-19T11:51:04.995Z,51.39
2023-06-19T11:52:05.891Z,52.76
2023-06-19T11:53:06.061Z,52.1
2023-06-19T11:54:07.072Z,51.68
2023-06-19T11:55:07.606Z,52.3
2023-06-19T11:56:08.424Z,52.1
2023-06-19T11:57:09.201Z,52.17
2023-06-19T11:58:09.920Z,50.81
2023-06-19T11:59:10.434Z,51.2
2023-06-19T12:00:10.628Z,50.61
2023-06-19T12:01:11.076Z,49.43
2023-06-19T12:02:12.207Z,49.6
2023-06-19T12:03:13.500Z,50.68
2023-06-19T12:04:13.597Z,50.76
2023-06-19T12:05:13.405Z,52.61
2023-06-19T12:06:13.495Z,52.78
2023-06-19T12:07:14.290Z,52.2
2023-06-19T12:08:15.324Z,50.93
2023-06-19T12:09:15.957Z,50.81
2023-06-19T12:10:17.026Z,52.27
2023-06-19T12:11:17.004Z,52.95
2023-06-19T12:12:17.355Z,52.27
2023-06-19T12:13:17.549Z,52.25
2023-06-19T12:14:18.133Z,53.49
2023-06-19T12:15:18.888Z,52.12
2023-06-19T12:16:19.715Z,52.12
2023-06-19T12:17:19.981Z,52.7
2023-06-19T12:18:20.192Z,52.87
2023-06-19T12:19:26.126Z,53.36
2023-06-19T12:20:22.298Z,52.97
2023-06-19T12:21:41.266Z,52.48
2023-06-19T12:22:23.468Z,52.09
2023-06-19T12:23:24.343Z,52.68
2023-06-19T12:24:25.327Z,53.27
2023-06-19T12:25:26.293Z,53.58
2023-06-19T12:26:26.299Z,53.95
2023-06-19T12:27:27.076Z,53.97
2023-06-19T12:28:27.408Z,53.75
2023-06-19T12:29:27.714Z,53.19
2023-06-19T12:30:28.662Z,53.39
2023-06-19T12:31:29.097Z,52.8
2023-06-19T12:32:29.122Z,53.32
2023-06-19T12:33:30.118Z,53.42
2023-06-19T12:34:36.973Z,52.66
2023-06-19T12:35:31.123Z,53.05
2023-06-19T12:36:31.863Z,53.05
2023-06-19T12:37:32.849Z,54.32
2023-06-19T12:38:33.582Z,54.88
2023-06-19T12:39:34.419Z,55.69
2023-06-19T12:40:35.382Z,55.88
2023-06-19T12:41:36.378Z,54.81
2023-06-19T12:42:36.662Z,55.88
2023-06-19T12:43:37.447Z,55.49
2023-06-19T12:44:38.184Z,54.81
2023-06-19T12:45:38.981Z,54.13
2023-06-19T12:46:39.286Z,52.47
2023-06-19T12:47:39.944Z,54
2023-06-19T12:48:40.509Z,55.08
2023-06-19T12:49:41.219Z,54.59
2023-06-19T12:50:41.605Z,54.69
2023-06-19T12:51:42.411Z,54.79
2023-06-19T12:52:43.340Z,55.44
2023-06-19T12:53:44.308Z,55.54
2023-06-19T12:54:45.302Z,56.22
2023-06-19T12:56:04.118Z,56.9
2023-06-19T12:56:45.920Z,56.1
2023-06-19T12:57:46.552Z,56
2023-06-19T12:58:46.868Z,56.1
2023-06-19T12:59:47.657Z,57.26
2023-06-19T13:00:48.530Z,56.29
2023-06-19T13:01:49.643Z,56.2
2023-06-19T13:02:50.286Z,56.1
2023-06-19T13:03:50.762Z,56.29
2023-06-19T13:04:50.676Z,57.17
2023-06-19T13:05:51.645Z,57.14
2023-06-19T13:06:52.645Z,57.53
2023-06-19T13:07:53.599Z,58.4
2023-06-19T13:08:53.580Z,57.43